createdAt,value
2023-05-12T00:01:57.616Z,4.60
2023-05-12T00:07:50.856Z,4.50
2023-05-12T00:13:44.244Z,4.20
2023-05-12T00:19:41.576Z,4.03
2023-05-12T00:25:35.338Z,3.37
2023-05-12T00:31:28.676Z,3.83
2023-05-12T00:37:23.310Z,3.90
2023-05-12T00:43:16.623Z,3.43
2023-05-12T00:49:09.945Z,3.40
2023-05-12T00:55:05.532Z,3.40
2023-05-12T01:00:58.781Z,3.80
2023-05-12T01:06:57.656Z,3.23
2023-05-12T01:12:52.246Z,3.63
2023-05-12T01:18:51.357Z,3.60
2023-05-12T01:24:51.250Z,3.20
2023-05-12T01:30:46.332Z,3.27
2023-05-12T01:36:40.103Z,3.40
2023-05-12T01:42:33.947Z,3.90
2023-05-12T01:48:29.079Z,3.37
2023-05-12T01:54:24.504Z,2.93
2023-05-12T02:00:18.744Z,3.10
2023-05-12T02:06:16.044Z,3.40
2023-05-12T02:12:10.283Z,3.40
2023-05-12T02:18:04.854Z,3.30
2023-05-12T02:23:59.855Z,3.40
2023-05-12T02:29:54.431Z,3.37
2023-05-12T02:35:48.898Z,2.90
2023-05-12T02:41:43.909Z,4.07
2023-05-12T02:47:37.725Z,3.67
2023-05-12T02:53:31.603Z,3.13
2023-05-12T02:59:26.499Z,3.17
2023-05-12T03:05:19.760Z,3.70
2023-05-12T03:11:12.944Z,3.50
2023-05-12T03:17:07.612Z,3.30
2023-05-12T03:23:01.525Z,3.30
2023-05-12T03:28:55.303Z,4.00
2023-05-12T03:34:49.805Z,3.23
2023-05-12T03:40:43.574Z,3.40
2023-05-12T03:46:36.888Z,3.30
2023-05-12T03:52:31.405Z,3.63
2023-05-12T03:58:25.052Z,3.53
2023-05-12T04:04:18.171Z,3.50
2023-05-12T04:10:13.247Z,3.40
2023-05-12T04:16:06.887Z,3.70
2023-05-12T04:22:00.126Z,3.83
2023-05-12T04:27:54.989Z,3.40
2023-05-12T04:33:49.196Z,4.23
2023-05-12T04:39:42.522Z,3.50
2023-05-12T04:45:37.304Z,3.53
2023-05-12T04:51:30.504Z,4.10
2023-05-12T04:57:23.879Z,4.10
2023-05-12T05:03:19.110Z,3.80
2023-05-12T05:09:12.450Z,4.00
2023-05-12T05:15:06.583Z,3.50
2023-05-12T05:21:01.370Z,3.60
2023-05-12T05:26:54.755Z,3.57
2023-05-12T05:32:47.900Z,3.70
2023-05-12T05:38:42.682Z,4.00
2023-05-12T05:44:36.034Z,3.80
2023-05-12T05:50:30.996Z,4.33
2023-05-12T05:56:25.512Z,4.20
2023-05-12T06:02:23.181Z,3.57
2023-05-12T06:08:16.985Z,3.53
2023-05-12T06:14:11.697Z,3.93
2023-05-12T06:20:06.508Z,3.80
2023-05-12T06:25:59.612Z,4.10
2023-05-12T06:31:55.593Z,4.33
2023-05-12T06:37:50.733Z,4.13
2023-05-12T06:43:44.091Z,3.77
2023-05-12T06:49:39.246Z,4.20
2023-05-12T06:55:32.284Z,3.57
2023-05-12T07:01:25.622Z,4.13
2023-05-12T07:07:20.197Z,3.67
2023-05-12T07:13:13.492Z,3.43
2023-05-12T07:19:08.964Z,4.03
2023-05-12T07:25:03.621Z,3.90
2023-05-12T07:30:56.792Z,3.43
2023-05-12T07:36:49.845Z,3.87
2023-05-12T07:42:44.251Z,3.90
2023-05-12T07:48:40.461Z,3.63
2023-05-12T07:54:33.576Z,3.57
2023-05-12T08:00:28.595Z,4.30
2023-05-12T08:06:21.811Z,4.60
2023-05-12T08:12:14.858Z,4.13
2023-05-12T08:18:09.368Z,3.77
2023-05-12T08:24:02.639Z,3.70
2023-05-12T08:29:55.652Z,3.27
2023-05-12T08:35:50.656Z,3.27
2023-05-12T08:41:45.811Z,3.63
2023-05-12T08:47:39.320Z,3.97
2023-05-12T08:53:36.054Z,3.70
2023-05-12T08:59:29.454Z,2.97
2023-05-12T09:05:23.372Z,3.33
2023-05-12T09:11:19.278Z,3.60
2023-05-12T09:17:13.199Z,3.40
2023-05-12T09:23:19.827Z,3.17
2023-05-12T09:29:24.007Z,2.97
2023-05-12T09:35:21.804Z,2.97
2023-05-12T09:41:14.944Z,3.13
2023-05-12T09:47:10.779Z,2.70
2023-05-12T09:53:07.010Z,2.87
2023-05-12T09:59:00.305Z,3.30
2023-05-12T10:04:59.576Z,2.43
2023-05-12T10:10:54.739Z,2.70
2023-05-12T10:16:48.277Z,3.00
2023-05-12T10:22:45.435Z,3.33
2023-05-12T10:28:38.728Z,2.93
2023-05-12T10:34:34.745Z,2.80
2023-05-12T10:40:29.995Z,2.70
2023-05-12T10:46:24.414Z,3.20
2023-05-12T10:52:21.290Z,3.27
2023-05-12T10:58:17.992Z,3.07
2023-05-12T11:04:15.722Z,2.77
2023-05-12T11:10:10.705Z,2.87
2023-05-12T11:16:05.818Z,2.87
2023-05-12T11:21:59.315Z,2.77
2023-05-12T11:27:52.890Z,2.50
2023-05-12T11:33:50.430Z,2.73
2023-05-12T11:39:46.760Z,2.40
2023-05-12T11:45:40.279Z,2.87
2023-05-12T11:51:35.089Z,2.70
2023-05-12T11:57:29.145Z,2.57
2023-05-12T12:03:22.338Z,2.60
2023-05-12T12:09:17.328Z,2.80
2023-05-12T12:15:11.150Z,2.10
2023-05-12T12:21:04.506Z,2.40
2023-05-12T12:26:59.199Z,2.30
2023-05-12T12:32:52.485Z,2.70
2023-05-12T12:38:45.757Z,2.70
2023-05-12T12:44:40.296Z,2.70
2023-05-12T12:50:33.807Z,3.00
2023-05-12T12:56:27.082Z,3.00
2023-05-12T13:02:21.835Z,2.77
2023-05-12T13:08:15.248Z,2.87
2023-05-12T13:14:08.804Z,3.03
2023-05-12T13:20:04.062Z,3.00
2023-05-12T13:25:59.086Z,3.03
2023-05-12T13:31:52.526Z,2.70
2023-05-12T13:37:47.755Z,2.83
2023-05-12T13:43:40.761Z,2.80
2023-05-12T13:49:33.768Z,2.63
2023-05-12T13:55:28.160Z,2.80
2023-05-12T14:01:21.770Z,2.40
2023-05-12T14:07:15.248Z,3.13
2023-05-12T14:13:09.911Z,2.60
2023-05-12T14:19:03.308Z,3.27
2023-05-12T14:24:56.858Z,2.50
2023-05-12T14:30:51.644Z,2.53
2023-05-12T14:36:44.869Z,2.67
2023-05-12T14:42:38.157Z,2.87
2023-05-12T14:48:32.558Z,2.50
2023-05-12T14:54:26.107Z,2.97
2023-05-12T15:00:21.425Z,2.80
2023-05-12T15:06:16.622Z,3.00
2023-05-12T15:12:10.472Z,3.43
2023-05-12T15:18:04.094Z,3.00
2023-05-12T15:23:58.746Z,2.97
2023-05-12T15:29:51.727Z,3.10
2023-05-12T15:35:44.701Z,2.93
2023-05-12T15:41:39.381Z,3.00
2023-05-12T15:47:32.823Z,3.00
2023-05-12T15:53:26.224Z,3.43
2023-05-12T15:59:20.814Z,3.17
2023-05-12T16:05:13.838Z,3.10
2023-05-12T16:11:07.082Z,2.83
2023-05-12T16:17:01.430Z,4.10
2023-05-12T16:22:55.188Z,3.23
2023-05-12T16:28:48.233Z,3.40
2023-05-12T16:34:42.948Z,3.40
2023-05-12T16:40:36.157Z,3.03
2023-05-12T16:46:29.926Z,3.17
2023-05-12T16:52:24.548Z,3.50
2023-05-12T16:58:17.770Z,2.97
2023-05-12T17:04:12.560Z,3.80
2023-05-12T17:10:07.687Z,3.83
2023-05-12T17:16:00.917Z,3.40
2023-05-12T17:21:54.153Z,3.10
2023-05-12T17:27:49.240Z,3.57
2023-05-12T17:33:42.455Z,2.70
2023-05-12T17:39:35.675Z,3.10
2023-05-12T17:45:30.281Z,2.70
2023-05-12T17:51:23.256Z,3.23
2023-05-12T17:57:16.696Z,2.77
2023-05-12T18:03:11.422Z,2.93
2023-05-12T18:09:04.947Z,3.20
2023-05-12T18:14:58.125Z,3.40
2023-05-12T18:20:52.445Z,3.10
2023-05-12T18:26:45.476Z,3.20
2023-05-12T18:32:39.454Z,3.20
2023-05-12T18:38:34.190Z,3.60
2023-05-12T18:44:27.715Z,3.73
2023-05-12T18:50:20.883Z,3.80
2023-05-12T18:56:15.988Z,4.17
2023-05-12T19:02:09.073Z,4.00
2023-05-12T19:08:02.259Z,4.10
2023-05-12T19:13:56.824Z,4.60
2023-05-12T19:19:50.761Z,4.30
2023-05-12T19:25:43.947Z,4.00
2023-05-12T19:31:38.676Z,5.17
2023-05-12T19:37:33.561Z,4.60
2023-05-12T19:43:26.743Z,4.80
2023-05-12T19:49:21.451Z,4.80
2023-05-12T19:55:14.714Z,4.27
2023-05-12T20:01:07.941Z,5.27
2023-05-12T20:07:02.510Z,6.20
2023-05-12T20:12:56.824Z,4.87
2023-05-12T20:18:50.822Z,4.60
2023-05-12T20:24:48.108Z,4.90
2023-05-12T20:30:41.336Z,4.40
2023-05-12T20:36:34.544Z,4.60
2023-05-12T20:42:29.123Z,5.10
2023-05-12T20:48:22.414Z,4.73
2023-05-12T20:54:15.625Z,4.70
2023-05-12T21:00:12.055Z,4.73
2023-05-12T21:06:06.700Z,4.33
2023-05-12T21:11:59.967Z,4.80
2023-05-12T21:17:54.592Z,5.03
2023-05-12T21:23:47.857Z,4.63
2023-05-12T21:29:41.102Z,4.93
2023-05-12T21:35:35.593Z,4.63
2023-05-12T21:41:28.905Z,4.23
2023-05-12T21:47:22.149Z,3.70
2023-05-12T21:53:17.147Z,4.60
2023-05-12T21:59:10.352Z,5.40
2023-05-12T22:05:03.580Z,4.20
2023-05-12T22:10:58.176Z,4.40
2023-05-12T22:16:51.476Z,4.63
2023-05-12T22:22:44.741Z,4.10
2023-05-12T22:28:39.267Z,4.87
2023-05-12T22:34:32.465Z,4.37
2023-05-12T22:40:27.273Z,4.90
2023-05-12T22:46:21.904Z,4.37
2023-05-12T22:52:15.159Z,4.27
2023-05-12T22:58:08.503Z,5.40
2023-05-12T23:04:03.210Z,4.87
2023-05-12T23:09:56.476Z,5.10
2023-05-12T23:15:49.675Z,4.53
2023-05-12T23:21:44.277Z,4.73
2023-05-12T23:27:37.917Z,4.23
2023-05-12T23:33:31.216Z,4.10
2023-05-12T23:39:25.831Z,4.53
2023-05-12T23:45:19.049Z,4.10
2023-05-12T23:51:12.304Z,4.30
2023-05-12T23:57:07.091Z,4.60
